createdAt,value
2023-03-02T00:01:39.645Z,36.30
2023-03-02T00:04:13.082Z,34.70
2023-03-02T00:06:40.899Z,33.50
2023-03-02T00:09:08.622Z,35.60
2023-03-02T00:11:38.867Z,33.50
2023-03-02T00:14:07.361Z,34.20
2023-03-02T00:16:35.454Z,33.60
2023-03-02T00:19:03.322Z,34.00
2023-03-02T00:21:31.680Z,34.40
2023-03-02T00:23:59.455Z,34.90
2023-03-02T00:26:27.255Z,39.40
2023-03-02T00:28:55.541Z,35.60
2023-03-02T00:31:23.345Z,35.20
2023-03-02T00:33:54.309Z,35.90
2023-03-02T00:36:23.979Z,34.80
2023-03-02T00:38:52.488Z,34.20
2023-03-02T00:41:23.936Z,35.60
2023-03-02T00:43:51.744Z,36.00
2023-03-02T00:46:22.434Z,36.80
2023-03-02T00:48:51.242Z,35.20
2023-03-02T00:51:19.339Z,35.20
2023-03-02T00:53:47.353Z,32.60
2023-03-02T00:56:15.084Z,32.40
2023-03-02T00:58:45.756Z,29.10
2023-03-02T01:01:13.951Z,28.00
2023-03-02T01:03:47.155Z,28.10
2023-03-02T01:06:18.781Z,29.60
2023-03-02T01:08:46.791Z,35.60
2023-03-02T01:11:21.265Z,34.40
2023-03-02T01:13:50.184Z,35.00
2023-03-02T01:16:18.597Z,36.70
2023-03-02T01:18:46.471Z,33.30
2023-03-02T01:21:16.003Z,52.40
2023-03-02T01:23:43.911Z,38.70
2023-03-02T01:26:11.733Z,41.50
2023-03-02T01:28:39.501Z,33.20
2023-03-02T01:31:07.298Z,57.20
2023-03-02T01:33:35.389Z,30.50
2023-03-02T01:36:03.507Z,32.40
2023-03-02T01:38:31.356Z,32.30
2023-03-02T01:40:59.167Z,29.40
2023-03-02T01:43:29.148Z,32.00
2023-03-02T01:46:01.735Z,33.60
2023-03-02T01:49:01.029Z,29.60
2023-03-02T01:51:45.948Z,27.70
2023-03-02T01:54:22.770Z,20.40
2023-03-02T01:56:58.161Z,18.70
2023-03-02T01:59:28.263Z,20.70
2023-03-02T02:02:00.613Z,17.30
2023-03-02T02:04:30.942Z,17.70
2023-03-02T02:07:03.363Z,18.30
2023-03-02T02:09:35.302Z,20.40
2023-03-02T02:12:05.843Z,21.80
2023-03-02T02:14:34.942Z,24.10
2023-03-02T02:17:02.780Z,20.50
2023-03-02T02:19:51.494Z,20.30
2023-03-02T02:22:44.915Z,17.50
2023-03-02T02:25:32.379Z,14.70
2023-03-02T02:28:03.139Z,16.30
2023-03-02T02:30:30.877Z,15.40
2023-03-02T02:33:00.627Z,13.60
2023-03-02T02:35:30.955Z,10.80
2023-03-02T02:38:04.586Z,10.80
2023-03-02T02:40:51.568Z,12.30
2023-03-02T02:43:21.991Z,10.40
2023-03-02T02:45:54.192Z,8.40
2023-03-02T02:48:24.617Z,9.40
2023-03-02T02:51:00.503Z,8.20
2023-03-02T02:53:58.902Z,7.70
2023-03-02T02:56:33.121Z,9.10
2023-03-02T02:59:06.258Z,10.40
2023-03-02T03:01:34.905Z,17.70
2023-03-02T03:04:06.023Z,10.00
2023-03-02T03:06:42.225Z,12.50
2023-03-02T03:09:11.254Z,12.00
2023-03-02T03:11:51.646Z,12.30
2023-03-02T03:14:24.607Z,11.00
2023-03-02T03:19:28.913Z,13.20
2023-03-02T03:22:00.949Z,17.60
2023-03-02T03:24:34.256Z,20.40
2023-03-02T03:27:05.281Z,15.30
2023-03-02T03:29:35.922Z,16.90
2023-03-02T03:32:06.837Z,16.40
2023-03-02T03:34:40.891Z,13.90
2023-03-02T03:37:18.517Z,13.40
2023-03-02T03:39:47.435Z,12.10
2023-03-02T03:42:15.864Z,12.50
2023-03-02T03:44:43.810Z,14.20
2023-03-02T03:47:11.606Z,15.50
2023-03-02T03:49:39.568Z,13.90
2023-03-02T03:52:07.640Z,13.40
2023-03-02T03:54:35.598Z,12.50
2023-03-02T03:57:03.450Z,11.00
2023-03-02T03:59:31.188Z,12.20
2023-03-02T04:02:02.940Z,12.80
2023-03-02T04:04:37.199Z,33.50
2023-03-02T04:07:09.648Z,9.50
2023-03-02T04:09:39.169Z,14.90
2023-03-02T04:12:10.013Z,16.00
2023-03-02T04:14:39.648Z,7.30
2023-03-02T04:17:08.091Z,10.20
2023-03-02T04:19:39.325Z,9.70
2023-03-02T04:22:07.395Z,9.00
2023-03-02T04:24:35.126Z,7.60
2023-03-02T04:27:04.668Z,12.10
2023-03-02T04:29:33.576Z,12.00
2023-03-02T04:32:03.653Z,12.30
2023-03-02T04:34:33.691Z,14.00
2023-03-02T04:37:01.978Z,10.10
2023-03-02T04:39:29.743Z,10.70
2023-03-02T04:41:57.534Z,10.30
2023-03-02T04:44:25.325Z,11.10
2023-03-02T04:46:53.290Z,8.90
2023-03-02T04:49:21.501Z,10.10
2023-03-02T04:51:50.348Z,9.10
2023-03-02T04:54:24.249Z,10.30
2023-03-02T04:56:53.363Z,10.20
2023-03-02T04:59:25.918Z,8.30
2023-03-02T05:01:56.338Z,8.20
2023-03-02T05:04:24.314Z,7.50
2023-03-02T05:06:52.173Z,6.20
2023-03-02T05:09:21.150Z,6.60
2023-03-02T05:11:48.891Z,5.40
2023-03-02T05:14:16.598Z,5.20
2023-03-02T05:16:44.341Z,4.80
2023-03-02T05:19:13.117Z,3.80
2023-03-02T05:21:41.376Z,5.00
2023-03-02T05:24:10.140Z,11.10
2023-03-02T05:26:38.471Z,13.60
2023-03-02T05:29:06.565Z,6.00
2023-03-02T05:31:41.053Z,4.40
2023-03-02T05:34:11.619Z,3.30
2023-03-02T05:36:39.826Z,4.00
2023-03-02T05:39:08.949Z,8.40
2023-03-02T05:41:37.420Z,10.00
2023-03-02T05:44:09.280Z,9.90
2023-03-02T05:46:37.141Z,7.80
2023-03-02T05:49:04.981Z,6.70
2023-03-02T05:51:32.731Z,11.10
2023-03-02T05:54:00.464Z,11.80
2023-03-02T05:56:28.241Z,9.80
2023-03-02T05:58:56.017Z,8.50
2023-03-02T06:01:25.480Z,8.30
2023-03-02T06:03:53.178Z,6.70
2023-03-02T06:06:20.888Z,7.60
2023-03-02T06:08:48.582Z,7.00
2023-03-02T06:11:16.404Z,7.50
2023-03-02T06:13:44.608Z,6.70
2023-03-02T06:16:12.689Z,7.70
2023-03-02T06:18:41.694Z,6.50
2023-03-02T06:21:09.851Z,6.00
2023-03-02T06:23:42.772Z,13.80
2023-03-02T06:26:13.068Z,5.00
2023-03-02T06:28:56.579Z,5.80
2023-03-02T06:31:24.457Z,8.20
2023-03-02T06:33:52.208Z,7.60
2023-03-02T06:36:20.092Z,5.40
2023-03-02T06:38:48.099Z,6.00
2023-03-02T06:41:16.973Z,13.80
2023-03-02T06:43:44.995Z,8.60
2023-03-02T06:46:13.132Z,6.50
2023-03-02T06:48:41.063Z,7.00
2023-03-02T06:51:08.888Z,7.00
2023-03-02T06:53:36.659Z,11.20
2023-03-02T06:56:04.829Z,9.20
2023-03-02T06:58:32.581Z,10.50
2023-03-02T07:01:00.525Z,15.30
2023-03-02T07:03:28.411Z,14.60
2023-03-02T07:05:56.195Z,12.60
2023-03-02T07:08:24.041Z,15.70
2023-03-02T07:10:51.871Z,17.10
2023-03-02T07:13:20.072Z,16.50
2023-03-02T07:15:47.844Z,26.10
2023-03-02T07:18:15.623Z,34.00
2023-03-02T07:20:43.337Z,32.70
2023-03-02T07:23:11.107Z,99.30
2023-03-02T07:25:39.367Z,54.80
2023-03-02T07:28:07.254Z,31.10
2023-03-02T07:30:35.054Z,26.50
2023-03-02T07:33:02.864Z,22.40
2023-03-02T07:35:30.930Z,19.60
2023-03-02T07:37:58.984Z,17.30
2023-03-02T07:40:26.814Z,103.10
2023-03-02T07:42:54.654Z,17.40
2023-03-02T07:45:24.889Z,12.10
2023-03-02T07:47:52.692Z,11.20
2023-03-02T07:50:20.376Z,7.30
2023-03-02T07:52:48.150Z,9.30
2023-03-02T07:55:16.031Z,8.00
2023-03-02T07:57:43.751Z,8.80
2023-03-02T08:00:12.050Z,7.50
2023-03-02T08:02:41.678Z,5.90
2023-03-02T08:05:11.234Z,3.80
2023-03-02T08:07:40.511Z,5.40
2023-03-02T08:10:09.077Z,8.20
2023-03-02T08:12:36.776Z,11.10
2023-03-02T08:15:05.327Z,9.00
2023-03-02T08:17:33.136Z,10.50
2023-03-02T08:20:01.220Z,9.90
2023-03-02T08:22:28.912Z,8.50
2023-03-02T08:24:56.997Z,7.50
2023-03-02T08:27:24.734Z,7.50
2023-03-02T08:29:54.056Z,7.60
2023-03-02T08:32:21.830Z,7.50
2023-03-02T08:34:51.656Z,8.40
2023-03-02T08:37:19.767Z,8.20
2023-03-02T08:39:48.405Z,8.50
2023-03-02T08:42:16.212Z,8.00
2023-03-02T08:44:44.478Z,9.70
2023-03-02T08:47:12.255Z,9.60
2023-03-02T08:49:40.050Z,9.00
2023-03-02T08:52:08.036Z,9.60
2023-03-02T08:54:36.802Z,9.50
2023-03-02T08:57:04.527Z,8.60
2023-03-02T08:59:32.318Z,8.90
2023-03-02T09:02:00.363Z,10.00
2023-03-02T09:04:28.761Z,7.00
2023-03-02T09:06:56.844Z,6.80
2023-03-02T09:09:24.896Z,7.20
2023-03-02T09:11:52.986Z,5.80
2023-03-02T09:14:21.476Z,6.30
2023-03-02T09:16:49.359Z,7.10
2023-03-02T09:19:17.196Z,7.10
2023-03-02T09:21:44.931Z,7.00
2023-03-02T09:24:12.911Z,5.90
2023-03-02T09:26:41.176Z,5.90
2023-03-02T09:29:09.724Z,5.00
2023-03-02T09:31:38.727Z,5.30
2023-03-02T09:34:06.775Z,6.10
2023-03-02T09:36:35.043Z,6.40
2023-03-02T09:39:08.544Z,5.60
2023-03-02T09:42:08.182Z,5.40
2023-03-02T09:44:57.819Z,6.50
2023-03-02T09:47:59.430Z,5.90
2023-03-02T09:50:34.593Z,6.00
2023-03-02T09:53:18.271Z,5.80
2023-03-02T09:55:51.658Z,4.80
2023-03-02T09:58:21.758Z,5.50
2023-03-02T10:00:51.129Z,5.50
2023-03-02T10:03:22.432Z,4.70
2023-03-02T10:05:54.942Z,5.70
2023-03-02T10:08:26.556Z,7.20
2023-03-02T10:11:01.981Z,5.60
2023-03-02T10:13:35.774Z,5.20
2023-03-02T10:16:15.935Z,4.80
2023-03-02T10:18:49.890Z,4.00
2023-03-02T10:21:33.720Z,4.90
2023-03-02T10:26:51.732Z,5.00
2023-03-02T10:29:38.838Z,4.70
2023-03-02T10:32:09.601Z,5.70
2023-03-02T10:34:38.588Z,13.40
2023-03-02T10:37:14.702Z,26.50
2023-03-02T10:39:43.575Z,5.20
2023-03-02T10:42:16.961Z,4.60
2023-03-02T10:45:07.838Z,3.80
2023-03-02T10:47:35.643Z,10.10
2023-03-02T10:50:03.510Z,14.40
2023-03-02T10:52:31.268Z,4.30
2023-03-02T10:55:12.582Z,5.10
2023-03-02T10:57:43.168Z,4.60
2023-03-02T11:00:20.884Z,3.30
2023-03-02T11:02:54.848Z,3.70
2023-03-02T11:05:29.206Z,4.20
2023-03-02T11:08:03.827Z,3.90
2023-03-02T11:10:38.014Z,4.00
2023-03-02T11:13:28.031Z,4.20
2023-03-02T11:16:01.474Z,5.20
2023-03-02T11:22:50.137Z,4.00
2023-03-02T11:26:26.826Z,4.30
2023-03-02T11:30:05.559Z,5.30
2023-03-02T11:33:39.911Z,4.90
2023-03-02T11:36:59.839Z,4.60
2023-03-02T11:40:30.576Z,4.70
2023-03-02T11:43:19.539Z,4.60
2023-03-02T11:46:21.589Z,6.00
2023-03-02T11:55:09.545Z,6.60
2023-03-02T12:01:44.623Z,5.60
2023-03-02T12:09:43.652Z,4.90
2023-03-02T12:13:28.838Z,5.20
2023-03-02T12:16:20.046Z,3.90
2023-03-02T12:21:18.974Z,4.20
2023-03-02T12:23:49.864Z,5.50
2023-03-02T12:26:20.747Z,4.50
2023-03-02T12:29:10.257Z,5.50
2023-03-02T12:31:48.445Z,4.10
2023-03-02T12:34:39.194Z,4.40
2023-03-02T12:37:23.521Z,6.00
2023-03-02T12:40:13.010Z,5.30
2023-03-02T12:43:12.651Z,5.60
2023-03-02T12:45:57.804Z,6.00
2023-03-02T12:48:31.841Z,4.00
2023-03-02T12:51:02.843Z,4.70
2023-03-02T12:53:30.795Z,5.10
2023-03-02T12:55:58.606Z,5.20
2023-03-02T12:58:29.199Z,5.00
2023-03-02T13:01:01.329Z,5.90
2023-03-02T13:03:31.192Z,5.30
2023-03-02T13:06:14.507Z,5.40
2023-03-02T13:08:48.439Z,5.70
2023-03-02T13:11:36.778Z,6.90
2023-03-02T13:14:22.704Z,6.90
2023-03-02T13:16:56.020Z,6.80
2023-03-02T13:19:25.699Z,6.10
2023-03-02T13:21:53.793Z,5.70
2023-03-02T13:24:53.501Z,6.00
2023-03-02T13:27:23.479Z,5.80
2023-03-02T13:29:52.934Z,6.50
2023-03-02T13:32:25.370Z,6.20
2023-03-02T13:37:46.433Z,9.00
2023-03-02T13:40:32.305Z,6.50
2023-03-02T13:43:00.079Z,7.10
2023-03-02T13:45:30.229Z,7.20
2023-03-02T13:48:15.224Z,7.60
2023-03-02T13:51:01.360Z,7.30
2023-03-02T13:53:31.666Z,7.20
2023-03-02T13:56:02.808Z,7.20
2023-03-02T13:58:38.225Z,6.20
2023-03-02T14:01:07.630Z,6.00
2023-03-02T14:03:35.399Z,7.10
2023-03-02T14:06:03.377Z,6.80
2023-03-02T14:08:31.186Z,5.90
2023-03-02T14:11:01.136Z,6.20
2023-03-02T14:13:47.227Z,7.00
2023-03-02T14:16:16.742Z,7.30
2023-03-02T14:18:47.160Z,7.60
2023-03-02T14:21:20.742Z,6.50
2023-03-02T14:26:33.575Z,7.00
2023-03-02T14:29:25.950Z,6.40
2023-03-02T14:31:55.509Z,6.70
2023-03-02T14:34:23.440Z,7.60
2023-03-02T14:36:54.469Z,7.30
2023-03-02T14:39:24.206Z,7.40
2023-03-02T14:41:54.506Z,7.80
2023-03-02T14:44:23.188Z,7.50
2023-03-02T14:46:51.420Z,7.60
2023-03-02T14:49:20.200Z,7.40
2023-03-02T14:52:02.961Z,8.10
2023-03-02T14:54:40.870Z,7.40
2023-03-02T14:57:25.846Z,7.80
2023-03-02T14:59:55.939Z,7.60
2023-03-02T15:02:26.833Z,7.60
2023-03-02T15:04:57.509Z,7.90
2023-03-02T15:07:27.599Z,7.50
2023-03-02T15:09:56.854Z,7.60
2023-03-02T15:12:25.081Z,8.70
2023-03-02T15:14:52.905Z,7.60
2023-03-02T15:17:20.679Z,8.60
2023-03-02T15:19:48.516Z,8.40
2023-03-02T15:22:16.664Z,8.70
2023-03-02T15:24:44.440Z,8.60
2023-03-02T15:27:12.232Z,8.90
2023-03-02T15:29:44.710Z,10.10
2023-03-02T15:32:13.571Z,11.50
2023-03-02T15:34:41.569Z,10.40
2023-03-02T15:37:11.353Z,8.80
2023-03-02T15:39:39.076Z,9.70
2023-03-02T15:42:07.072Z,10.00
2023-03-02T15:44:34.873Z,11.00
2023-03-02T15:47:02.798Z,10.30
2023-03-02T15:49:32.741Z,10.00
2023-03-02T15:52:00.967Z,10.30
2023-03-02T15:54:29.265Z,10.60
2023-03-02T15:56:57.090Z,10.80
2023-03-02T15:59:27.511Z,10.20
2023-03-02T16:01:59.371Z,10.00
2023-03-02T16:04:28.774Z,10.50
2023-03-02T16:06:56.922Z,10.70
2023-03-02T16:09:25.689Z,11.20
2023-03-02T16:11:53.419Z,9.90
2023-03-02T16:14:21.456Z,11.20
2023-03-02T16:16:49.416Z,11.40
2023-03-02T16:19:19.401Z,12.90
2023-03-02T16:21:48.010Z,13.20
2023-03-02T16:24:16.949Z,12.90
2023-03-02T16:26:45.362Z,12.40
2023-03-02T16:29:15.054Z,12.60
2023-03-02T16:31:46.542Z,12.20
2023-03-02T16:34:14.566Z,13.60
2023-03-02T16:36:42.435Z,14.40
2023-03-02T16:39:12.327Z,17.20
2023-03-02T16:41:42.433Z,18.40
2023-03-02T16:44:11.027Z,20.20
2023-03-02T16:46:43.446Z,20.10
2023-03-02T16:49:12.787Z,19.60
2023-03-02T16:51:41.471Z,21.40
2023-03-02T16:54:09.975Z,18.50
2023-03-02T16:56:37.808Z,17.20
2023-03-02T16:59:05.549Z,14.50
2023-03-02T17:01:33.337Z,32.20
2023-03-02T17:04:02.793Z,35.40
2023-03-02T17:06:32.009Z,30.70
2023-03-02T17:09:00.209Z,31.70
2023-03-02T17:11:28.265Z,29.90
2023-03-02T17:13:56.037Z,26.00
2023-03-02T17:16:24.838Z,23.90
2023-03-02T17:18:52.559Z,23.20
2023-03-02T17:21:20.625Z,23.70
2023-03-02T17:23:48.459Z,27.20
2023-03-02T17:26:17.252Z,33.30
2023-03-02T17:28:45.122Z,47.40
2023-03-02T17:31:13.003Z,53.60
2023-03-02T17:33:40.733Z,64.80
2023-03-02T17:36:11.790Z,67.50
2023-03-02T17:38:40.009Z,53.10
2023-03-02T17:41:12.989Z,43.20
2023-03-02T17:43:41.998Z,26.60
2023-03-02T17:46:16.157Z,40.50
2023-03-02T17:48:43.928Z,32.40
2023-03-02T17:51:14.746Z,37.70
2023-03-02T17:53:47.833Z,46.50
2023-03-02T17:56:21.937Z,41.00
2023-03-02T17:58:57.363Z,49.20
2023-03-02T18:01:25.773Z,51.50
2023-03-02T18:03:53.582Z,54.30
2023-03-02T18:06:21.916Z,46.00
2023-03-02T18:08:51.928Z,36.40
2023-03-02T18:11:22.228Z,39.60
2023-03-02T18:13:50.040Z,38.60
2023-03-02T18:16:17.829Z,39.30
2023-03-02T18:18:45.581Z,50.10
2023-03-02T18:21:13.284Z,50.40
2023-03-02T18:23:42.091Z,50.10
2023-03-02T18:26:09.877Z,54.20
2023-03-02T18:28:38.655Z,55.10
2023-03-02T18:31:07.237Z,58.00
2023-03-02T18:33:35.143Z,56.90
2023-03-02T18:36:05.461Z,51.10
2023-03-02T18:38:34.818Z,50.70
2023-03-02T18:41:06.295Z,48.70
2023-03-02T18:43:38.824Z,54.90
2023-03-02T18:46:08.543Z,64.40
2023-03-02T18:48:37.425Z,61.00
2023-03-02T18:51:05.202Z,63.70
2023-03-02T18:53:33.978Z,59.50
2023-03-02T18:56:02.098Z,58.90
2023-03-02T18:58:33.926Z,58.40
2023-03-02T19:01:02.534Z,59.40
2023-03-02T19:03:30.882Z,55.70
2023-03-02T19:05:58.936Z,57.70
2023-03-02T19:08:27.012Z,53.20
2023-03-02T19:10:55.490Z,59.30
2023-03-02T19:13:24.011Z,58.40
2023-03-02T19:15:54.822Z,57.10
2023-03-02T19:18:24.831Z,55.80
2023-03-02T19:20:54.409Z,54.70
2023-03-02T19:23:22.154Z,53.70
2023-03-02T19:25:50.814Z,47.40
2023-03-02T19:28:19.079Z,39.90
2023-03-02T19:30:47.240Z,34.10
2023-03-02T19:33:15.274Z,35.20
2023-03-02T19:35:43.209Z,37.00
2023-03-02T19:38:11.598Z,38.50
2023-03-02T19:40:39.543Z,40.60
2023-03-02T19:43:07.484Z,43.90
2023-03-02T19:45:36.276Z,44.00
2023-03-02T19:48:05.705Z,47.90
2023-03-02T19:50:33.534Z,47.20
2023-03-02T19:53:01.282Z,44.60
2023-03-02T19:55:29.126Z,48.70
2023-03-02T19:58:01.025Z,57.00
2023-03-02T20:00:31.498Z,66.70
2023-03-02T20:02:59.922Z,98.10
2023-03-02T20:05:27.958Z,76.90
2023-03-02T20:07:55.833Z,71.90
2023-03-02T20:10:30.077Z,73.20
2023-03-02T20:12:59.606Z,74.50
2023-03-02T20:15:29.871Z,260.70
2023-03-02T20:17:59.446Z,63.10
2023-03-02T20:20:27.218Z,60.70
2023-03-02T20:22:55.025Z,84.70
2023-03-02T20:25:23.424Z,73.60
2023-03-02T20:27:51.828Z,61.70
2023-03-02T20:30:27.662Z,65.00
2023-03-02T20:32:56.512Z,73.10
2023-03-02T20:35:25.002Z,81.20
2023-03-02T20:37:54.573Z,101.90
2023-03-02T20:40:23.557Z,67.60
2023-03-02T20:42:51.532Z,77.10
2023-03-02T20:45:19.557Z,145.10
2023-03-02T20:47:47.523Z,102.40
2023-03-02T20:50:20.642Z,65.70
2023-03-02T20:52:48.558Z,54.00
2023-03-02T20:55:16.599Z,56.50
2023-03-02T20:57:44.708Z,96.40
2023-03-02T21:00:20.809Z,55.90
2023-03-02T21:02:49.497Z,82.00
2023-03-02T21:05:19.253Z,98.10
2023-03-02T21:07:48.009Z,146.30
2023-03-02T21:10:20.078Z,280.50
2023-03-02T21:12:48.966Z,128.60
2023-03-02T21:15:19.992Z,96.40
2023-03-02T21:17:47.731Z,82.20
2023-03-02T21:20:18.334Z,127.90
2023-03-02T21:22:46.356Z,82.10
2023-03-02T21:25:14.614Z,139.30
2023-03-02T21:27:44.184Z,115.40
2023-03-02T21:30:22.338Z,86.80
2023-03-02T21:32:50.581Z,60.00
2023-03-02T21:35:20.449Z,60.80
2023-03-02T21:37:51.193Z,102.30
2023-03-02T21:40:23.738Z,74.10
2023-03-02T21:42:52.131Z,78.60
2023-03-02T21:45:20.828Z,52.20
2023-03-02T21:47:49.997Z,69.10
2023-03-02T21:50:22.418Z,84.80
2023-03-02T21:52:50.569Z,68.30
2023-03-02T21:55:18.735Z,93.70
2023-03-02T21:57:46.457Z,141.50
2023-03-02T22:00:22.250Z,179.40
2023-03-02T22:02:50.934Z,84.20
2023-03-02T22:05:19.536Z,61.10
2023-03-02T22:07:47.804Z,85.50
2023-03-02T22:10:52.794Z,61.80
2023-03-02T22:13:32.745Z,68.00
2023-03-02T22:16:25.368Z,52.40
2023-03-02T22:18:57.065Z,49.00
2023-03-02T22:21:33.275Z,51.20
2023-03-02T22:24:25.907Z,47.90
2023-03-02T22:27:25.893Z,49.80
2023-03-02T22:29:57.781Z,47.00
2023-03-02T22:32:31.092Z,49.10
2023-03-02T22:37:34.565Z,43.00
2023-03-02T22:40:13.094Z,46.20
2023-03-02T22:42:40.791Z,46.90
2023-03-02T22:45:14.748Z,48.80
2023-03-02T22:47:43.777Z,48.30
2023-03-02T22:50:25.919Z,48.20
2023-03-02T22:52:56.306Z,50.30
2023-03-02T22:55:30.878Z,50.10
2023-03-02T22:57:58.647Z,54.80
2023-03-02T23:00:35.071Z,52.50
2023-03-02T23:03:17.700Z,50.10
2023-03-02T23:05:49.127Z,49.30
2023-03-02T23:08:22.374Z,48.10
2023-03-02T23:10:52.647Z,48.30
2023-03-02T23:13:26.943Z,50.00
2023-03-02T23:15:55.261Z,47.80
2023-03-02T23:18:24.374Z,51.80
2023-03-02T23:20:52.668Z,47.20
2023-03-02T23:23:22.652Z,47.70
2023-03-02T23:25:50.663Z,48.70
2023-03-02T23:28:18.389Z,48.90
2023-03-02T23:30:47.539Z,50.80
2023-03-02T23:33:15.517Z,54.10
2023-03-02T23:35:43.302Z,51.10
2023-03-02T23:38:11.022Z,51.60
2023-03-02T23:40:38.739Z,49.80
2023-03-02T23:43:06.449Z,48.20
2023-03-02T23:45:34.487Z,51.60
2023-03-02T23:48:02.275Z,50.80
2023-03-02T23:50:29.992Z,49.40
2023-03-02T23:52:57.710Z,53.40
2023-03-02T23:55:25.426Z,51.40
2023-03-02T23:57:53.196Z,55.80
